createdAt,value
2019-04-07T00:00:06.531Z,84.10
2019-04-07T00:02:34.848Z,84.70
2019-04-07T00:05:10.979Z,84.80
2019-04-07T00:07:29.738Z,85.10
2019-04-07T00:09:58.853Z,84.60
2019-04-07T00:12:25.399Z,84.70
2019-04-07T00:14:52.222Z,84.60
2019-04-07T00:17:19.226Z,85.10
2019-04-07T00:19:45.893Z,84.70
2019-04-07T00:22:12.727Z,84.80
2019-04-07T00:24:40.060Z,85.40
2019-04-07T00:27:06.916Z,85.10
2019-04-07T00:29:33.438Z,84.90
2019-04-07T00:32:00.158Z,85.10
2019-04-07T00:34:26.614Z,85.80
2019-04-07T00:36:53.592Z,85.30
2019-04-07T00:39:20.690Z,85.40
2019-04-07T00:41:47.523Z,85.70
2019-04-07T00:44:14.638Z,85.70
2019-04-07T00:46:41.201Z,85.90
2019-04-07T00:49:08.328Z,86.20
2019-04-07T00:51:37.535Z,86.20
2019-04-07T00:54:04.185Z,86.30
2019-04-07T00:56:31.196Z,87.20
2019-04-07T00:58:57.802Z,87.00
2019-04-07T01:01:24.547Z,86.60
2019-04-07T01:03:51.421Z,86.70
2019-04-07T01:06:17.832Z,87.20
2019-04-07T01:08:44.804Z,87.20
2019-04-07T01:11:11.522Z,87.10
2019-04-07T01:13:38.548Z,86.90
2019-04-07T01:16:05.175Z,87.20
2019-04-07T01:18:31.869Z,87.20
2019-04-07T01:20:58.344Z,87.50
2019-04-07T01:23:25.147Z,87.50
2019-04-07T01:25:52.250Z,87.60
2019-04-07T01:28:18.731Z,87.90
2019-04-07T01:30:45.080Z,88.10
2019-04-07T01:33:11.752Z,87.90
2019-04-07T01:35:46.173Z,87.10
2019-04-07T01:38:07.183Z,87.90
2019-04-07T01:40:33.791Z,87.90
2019-04-07T01:43:02.629Z,87.90
2019-04-07T01:45:34.265Z,88.00
2019-04-07T01:48:15.103Z,87.90
2019-04-07T01:50:45.108Z,88.90
2019-04-07T01:53:16.345Z,88.10
2019-04-07T01:55:45.478Z,88.10
2019-04-07T01:58:30.674Z,88.10
2019-04-07T02:01:21.962Z,88.10
2019-04-07T02:03:51.150Z,88.30
2019-04-07T02:06:19.871Z,88.60
2019-04-07T02:09:05.330Z,88.80
2019-04-07T02:11:37.613Z,89.00
2019-04-07T02:14:21.345Z,88.30
2019-04-07T02:16:52.692Z,88.80
2019-04-07T02:19:24.114Z,88.50
2019-04-07T02:22:05.841Z,88.50
2019-04-07T02:24:34.457Z,88.30
2019-04-07T02:27:18.193Z,88.30
2019-04-07T02:29:46.632Z,88.40
2019-04-07T02:32:24.548Z,88.20
2019-04-07T02:34:53.111Z,88.40
2019-04-07T02:37:22.726Z,89.50
2019-04-07T02:39:57.273Z,88.30
2019-04-07T02:42:25.658Z,88.40
2019-04-07T02:44:57.335Z,88.60
2019-04-07T02:47:28.763Z,88.60
2019-04-07T02:49:57.354Z,88.30
2019-04-07T02:52:34.499Z,88.30
2019-04-07T02:55:19.683Z,88.50
2019-04-07T02:57:51.280Z,88.30
2019-04-07T03:00:37.990Z,88.50
2019-04-07T03:03:08.975Z,88.60
2019-04-07T03:05:43.929Z,88.80
2019-04-07T03:08:29.037Z,89.60
2019-04-07T03:11:14.795Z,88.70
2019-04-07T03:13:54.973Z,88.70
2019-04-07T03:16:26.119Z,89.20
2019-04-07T03:18:54.852Z,89.00
2019-04-07T03:21:40.374Z,89.00
2019-04-07T03:24:24.573Z,89.00
2019-04-07T03:26:56.015Z,89.00
2019-04-07T03:29:33.393Z,89.30
2019-04-07T03:32:08.661Z,89.10
2019-04-07T03:34:48.810Z,89.20
2019-04-07T03:37:34.210Z,89.40
2019-04-07T03:39:58.963Z,89.50
2019-04-07T03:42:38.463Z,89.10
2019-04-07T03:45:08.247Z,89.20
2019-04-07T03:47:37.596Z,89.10
2019-04-07T03:50:07.217Z,89.10
2019-04-07T03:52:53.051Z,89.30
2019-04-07T03:55:28.270Z,89.30
2019-04-07T03:58:03.625Z,89.40
2019-04-07T04:01:17.698Z,89.50
2019-04-07T04:04:05.478Z,89.30
2019-04-07T04:06:51.500Z,89.40
2019-04-07T04:09:20.741Z,89.40
2019-04-07T04:11:58.388Z,89.50
2019-04-07T04:14:26.774Z,89.50
2019-04-07T04:16:54.237Z,89.70
2019-04-07T04:19:22.653Z,89.70
2019-04-07T04:21:49.209Z,89.70
2019-04-07T04:24:16.631Z,89.60
2019-04-07T04:26:44.095Z,89.80
2019-04-07T04:29:10.609Z,89.70
2019-04-07T04:31:37.123Z,90.00
2019-04-07T04:34:03.767Z,89.70
2019-04-07T04:36:30.207Z,89.50
2019-04-07T04:38:56.643Z,89.60
2019-04-07T04:41:23.320Z,89.50
2019-04-07T04:43:50.100Z,90.00
2019-04-07T04:46:17.041Z,89.30
2019-04-07T04:48:43.579Z,89.30
2019-04-07T04:51:13.024Z,89.00
2019-04-07T04:53:39.705Z,89.00
2019-04-07T04:56:06.140Z,89.30
2019-04-07T04:58:32.545Z,89.00
2019-04-07T05:00:59.005Z,89.10
2019-04-07T05:03:26.013Z,89.00
2019-04-07T05:05:52.560Z,89.00
2019-04-07T05:08:20.474Z,89.00
2019-04-07T05:10:47.380Z,89.00
2019-04-07T05:13:14.061Z,88.90
2019-04-07T05:15:40.578Z,88.60
2019-04-07T05:18:07.095Z,88.70
2019-04-07T05:20:34.377Z,89.30
2019-04-07T05:23:01.015Z,88.60
2019-04-07T05:25:27.460Z,88.40
2019-04-07T05:27:54.537Z,88.00
2019-04-07T05:30:21.124Z,88.10
2019-04-07T05:32:47.850Z,87.60
2019-04-07T05:35:14.427Z,87.30
2019-04-07T05:37:40.806Z,86.90
2019-04-07T05:40:07.174Z,86.40
2019-04-07T05:42:34.260Z,85.90
2019-04-07T05:45:00.778Z,84.80
2019-04-07T05:47:27.632Z,83.40
2019-04-07T05:49:57.324Z,81.80
2019-04-07T05:52:22.786Z,80.40
2019-04-07T05:54:50.015Z,78.90
2019-04-07T05:57:18.616Z,76.90
2019-04-07T05:59:45.158Z,75.50
2019-04-07T06:02:12.092Z,74.80
2019-04-07T06:04:39.271Z,74.00
2019-04-07T06:07:05.927Z,73.00
2019-04-07T06:09:33.817Z,71.90
2019-04-07T06:12:01.062Z,71.40
2019-04-07T06:14:28.656Z,70.00
2019-04-07T06:16:55.726Z,69.50
2019-04-07T06:19:22.476Z,69.50
2019-04-07T06:21:49.710Z,69.40
2019-04-07T06:24:16.911Z,69.00
2019-04-07T06:26:48.876Z,69.10
2019-04-07T06:29:11.859Z,68.30
2019-04-07T06:31:38.237Z,68.70
2019-04-07T06:34:08.678Z,67.90
2019-04-07T06:36:33.094Z,66.90
2019-04-07T06:39:00.101Z,65.20
2019-04-07T06:41:30.084Z,64.70
2019-04-07T06:44:08.230Z,63.20
2019-04-07T06:46:37.939Z,63.70
2019-04-07T06:49:15.170Z,63.20
2019-04-07T06:51:50.082Z,62.10
2019-04-07T06:54:22.207Z,63.00
2019-04-07T06:57:07.581Z,63.10
2019-04-07T06:59:52.790Z,63.50
2019-04-07T07:02:29.529Z,63.50
2019-04-07T07:05:13.707Z,63.70
2019-04-07T07:07:49.719Z,61.60
2019-04-07T07:10:37.739Z,59.90
2019-04-07T07:13:28.451Z,58.00
2019-04-07T07:16:09.602Z,56.90
2019-04-07T07:18:44.955Z,56.50
2019-04-07T07:21:19.134Z,55.20
2019-04-07T07:23:48.922Z,53.10
2019-04-07T07:26:13.879Z,51.60
2019-04-07T07:28:42.898Z,50.00
2019-04-07T07:31:08.872Z,50.00
2019-04-07T07:33:38.387Z,49.00
2019-04-07T07:36:04.309Z,46.80
2019-04-07T07:38:32.472Z,47.50
2019-04-07T07:41:01.536Z,47.00
2019-04-07T07:43:29.283Z,45.70
2019-04-07T07:45:56.738Z,45.00
2019-04-07T07:48:26.213Z,43.90
2019-04-07T07:50:51.541Z,45.00
2019-04-07T07:53:19.183Z,44.00
2019-04-07T07:55:46.689Z,43.70
2019-04-07T07:58:13.894Z,42.60
2019-04-07T08:00:42.360Z,42.50
2019-04-07T08:03:08.699Z,41.50
2019-04-07T08:05:35.104Z,40.90
2019-04-07T08:08:01.783Z,40.40
2019-04-07T08:10:29.050Z,40.90
2019-04-07T08:12:56.269Z,40.80
2019-04-07T08:15:25.498Z,41.20
2019-04-07T08:17:52.057Z,41.40
2019-04-07T08:20:19.604Z,41.60
2019-04-07T08:22:47.047Z,41.00
2019-04-07T08:25:14.204Z,40.50
2019-04-07T08:28:02.154Z,40.00
2019-04-07T08:30:47.644Z,40.30
2019-04-07T08:33:33.217Z,39.20
2019-04-07T08:36:18.435Z,39.30
2019-04-07T08:39:06.055Z,39.60
2019-04-07T08:41:51.857Z,38.40
2019-04-07T08:44:37.274Z,38.30
2019-04-07T08:47:24.620Z,37.40
2019-04-07T08:49:51.444Z,37.90
2019-04-07T08:52:19.665Z,38.40
2019-04-07T08:54:50.333Z,38.00
2019-04-07T08:57:15.264Z,37.50
2019-04-07T08:59:42.986Z,37.60
2019-04-07T09:02:09.635Z,36.70
2019-04-07T09:04:36.637Z,36.80
2019-04-07T09:09:59.888Z,35.80
2019-04-07T09:12:28.917Z,36.00
2019-04-07T09:14:55.634Z,36.00
2019-04-07T09:17:37.405Z,36.30
2019-04-07T09:20:21.306Z,35.30
2019-04-07T09:23:09.136Z,36.20
2019-04-07T09:26:05.570Z,37.00
2019-04-07T09:28:55.457Z,36.30
2019-04-07T09:31:41.839Z,35.40
2019-04-07T09:37:32.295Z,35.90
2019-04-07T09:40:30.766Z,36.40
2019-04-07T09:43:18.684Z,35.90
2019-04-07T09:45:55.131Z,34.70
2019-04-07T09:48:32.118Z,35.60
2019-04-07T09:51:18.588Z,33.70
2019-04-07T09:53:50.390Z,34.30
2019-04-07T09:56:20.551Z,34.30
2019-04-07T09:58:57.885Z,34.70
2019-04-07T10:01:28.574Z,33.40
2019-04-07T10:03:59.565Z,33.60
2019-04-07T10:06:45.022Z,34.50
2019-04-07T10:09:19.593Z,35.40
2019-04-07T10:12:01.546Z,34.10
2019-04-07T10:14:47.072Z,33.80
2019-04-07T10:17:24.305Z,34.90
2019-04-07T10:20:02.340Z,36.50
2019-04-07T10:22:32.007Z,38.00
2019-04-07T10:25:12.374Z,38.30
2019-04-07T10:27:47.222Z,37.70
2019-04-07T10:30:21.260Z,37.60
2019-04-07T10:32:50.660Z,37.60
2019-04-07T10:35:34.900Z,37.10
2019-04-07T10:38:12.566Z,38.30
2019-04-07T10:40:41.202Z,39.00
2019-04-07T10:43:09.620Z,41.00
2019-04-07T10:45:43.915Z,41.40
2019-04-07T10:48:15.525Z,40.30
2019-04-07T10:50:59.131Z,40.20
2019-04-07T10:53:32.055Z,42.00
2019-04-07T10:56:01.113Z,42.50
2019-04-07T10:58:39.249Z,41.70
2019-04-07T11:01:11.143Z,42.00
2019-04-07T11:04:03.844Z,42.20
2019-04-07T11:06:40.645Z,42.40
2019-04-07T11:09:21.118Z,43.30
2019-04-07T11:12:06.642Z,40.40
2019-04-07T11:14:35.300Z,39.90
2019-04-07T11:17:16.201Z,39.80
2019-04-07T11:20:03.535Z,39.40
2019-04-07T11:22:48.926Z,37.00
2019-04-07T11:25:29.868Z,37.40
2019-04-07T11:28:07.244Z,37.10
2019-04-07T11:30:35.781Z,35.50
2019-04-07T11:33:05.196Z,35.50
2019-04-07T11:35:36.928Z,35.50
2019-04-07T11:38:14.884Z,35.40
2019-04-07T11:40:49.846Z,35.60
2019-04-07T11:43:17.208Z,35.90
2019-04-07T11:45:56.156Z,36.10
2019-04-07T11:48:18.651Z,34.50
2019-04-07T11:51:03.567Z,35.20
2019-04-07T11:53:39.426Z,35.00
2019-04-07T11:56:19.581Z,34.70
2019-04-07T11:59:06.878Z,37.40
2019-04-07T12:01:41.929Z,36.10
2019-04-07T12:04:16.256Z,35.10
2019-04-07T12:06:49.517Z,35.10
2019-04-07T12:09:35.933Z,35.70
2019-04-07T12:12:12.650Z,38.40
2019-04-07T12:15:02.901Z,38.80
2019-04-07T12:17:47.762Z,39.90
2019-04-07T12:20:16.329Z,39.10
2019-04-07T12:22:47.092Z,41.10
2019-04-07T12:25:33.882Z,40.10
2019-04-07T12:28:03.459Z,40.60
2019-04-07T12:30:42.595Z,40.10
2019-04-07T12:33:20.413Z,39.80
2019-04-07T12:39:00.743Z,42.10
2019-04-07T12:41:33.070Z,43.30
2019-04-07T12:44:19.107Z,41.30
2019-04-07T12:47:05.147Z,41.70
2019-04-07T12:49:39.180Z,41.90
2019-04-07T12:52:28.038Z,42.00
2019-04-07T12:55:04.873Z,42.40
2019-04-07T12:57:38.326Z,42.10
2019-04-07T13:00:24.766Z,41.70
2019-04-07T13:02:55.201Z,41.40
2019-04-07T13:05:30.407Z,42.00
2019-04-07T13:08:14.546Z,41.90
2019-04-07T13:11:04.743Z,42.60
2019-04-07T13:13:33.737Z,42.10
2019-04-07T13:16:02.310Z,41.60
2019-04-07T13:18:48.342Z,42.10
2019-04-07T13:21:35.897Z,42.70
2019-04-07T13:24:22.392Z,42.90
2019-04-07T13:26:44.582Z,42.90
2019-04-07T13:29:13.036Z,44.10
2019-04-07T13:31:49.157Z,43.70
2019-04-07T13:34:34.809Z,43.90
2019-04-07T13:37:15.638Z,44.40
2019-04-07T13:39:45.205Z,44.80
2019-04-07T13:42:33.640Z,44.70
2019-04-07T13:45:03.946Z,45.00
2019-04-07T13:47:32.961Z,45.40
2019-04-07T13:50:19.685Z,46.40
2019-04-07T13:53:06.717Z,46.20
2019-04-07T13:55:52.056Z,45.70
2019-04-07T13:58:20.781Z,47.20
2019-04-07T14:00:55.896Z,47.90
2019-04-07T14:03:25.238Z,47.80
2019-04-07T14:06:14.282Z,48.50
2019-04-07T14:08:43.824Z,48.90
2019-04-07T14:11:15.200Z,49.60
2019-04-07T14:13:46.754Z,50.20
2019-04-07T14:16:15.902Z,49.90
2019-04-07T14:18:54.508Z,50.10
2019-04-07T14:21:29.560Z,50.90
2019-04-07T14:23:58.361Z,50.80
2019-04-07T14:26:26.917Z,50.90
2019-04-07T14:28:55.404Z,51.00
2019-04-07T14:31:35.848Z,51.70
2019-04-07T14:34:23.020Z,51.90
2019-04-07T14:36:52.378Z,52.10
2019-04-07T14:39:21.630Z,52.00
2019-04-07T14:42:02.631Z,51.90
2019-04-07T14:44:41.222Z,51.60
2019-04-07T14:47:19.746Z,51.30
2019-04-07T14:49:52.122Z,51.50
2019-04-07T14:52:25.214Z,51.50
2019-04-07T14:55:00.280Z,50.90
2019-04-07T14:57:47.904Z,52.10
2019-04-07T15:00:25.560Z,52.20
2019-04-07T15:02:50.992Z,52.80
2019-04-07T15:05:28.807Z,53.20
2019-04-07T15:08:06.505Z,53.20
2019-04-07T15:10:41.917Z,53.70
2019-04-07T15:13:16.115Z,53.70
2019-04-07T15:16:04.246Z,53.20
2019-04-07T15:18:30.619Z,54.10
2019-04-07T15:20:57.333Z,53.40
2019-04-07T15:23:25.025Z,53.50
2019-04-07T15:25:51.624Z,53.30
2019-04-07T15:28:18.343Z,53.50
2019-04-07T15:30:48.000Z,53.00
2019-04-07T15:33:13.655Z,52.50
2019-04-07T15:35:42.609Z,53.60
2019-04-07T15:38:08.808Z,54.40
2019-04-07T15:40:36.623Z,54.50
2019-04-07T15:43:06.000Z,54.40
2019-04-07T15:45:31.575Z,54.20
2019-04-07T15:48:00.523Z,54.10
2019-04-07T15:50:29.296Z,54.20
2019-04-07T15:52:55.291Z,54.40
2019-04-07T15:55:23.910Z,55.00
2019-04-07T15:57:54.299Z,55.40
2019-04-07T16:00:18.771Z,55.60
2019-04-07T16:02:46.145Z,56.10
2019-04-07T16:05:13.639Z,55.90
2019-04-07T16:07:40.690Z,55.90
2019-04-07T16:10:07.935Z,56.80
2019-04-07T16:12:42.870Z,55.50
2019-04-07T16:15:04.352Z,55.50
2019-04-07T16:17:33.896Z,55.90
2019-04-07T16:19:59.391Z,54.90
2019-04-07T16:22:25.831Z,56.00
2019-04-07T16:24:55.102Z,56.20
2019-04-07T16:27:20.666Z,56.60
2019-04-07T16:29:47.888Z,56.90
2019-04-07T16:32:33.827Z,57.20
2019-04-07T16:35:00.607Z,57.20
2019-04-07T16:37:29.147Z,57.50
2019-04-07T16:39:55.451Z,57.80
2019-04-07T16:42:21.818Z,58.10
2019-04-07T16:44:48.379Z,58.50
2019-04-07T16:47:21.018Z,58.30
2019-04-07T16:49:46.624Z,59.00
2019-04-07T16:52:12.330Z,58.50
2019-04-07T16:54:41.663Z,58.80
2019-04-07T16:57:07.479Z,58.60
2019-04-07T16:59:34.922Z,58.50
2019-04-07T17:02:01.384Z,58.80
2019-04-07T17:04:30.017Z,58.90
2019-04-07T17:07:03.269Z,58.90
2019-04-07T17:09:43.526Z,58.80
2019-04-07T17:12:29.111Z,59.10
2019-04-07T17:15:14.233Z,59.80
2019-04-07T17:18:00.171Z,60.40
2019-04-07T17:20:45.130Z,60.90
2019-04-07T17:23:30.097Z,61.50
2019-04-07T17:26:15.173Z,62.00
2019-04-07T17:29:01.188Z,62.50
2019-04-07T17:31:46.695Z,62.70
2019-04-07T17:34:24.013Z,63.20
2019-04-07T17:36:55.840Z,63.50
2019-04-07T17:39:22.719Z,63.70
2019-04-07T17:41:50.776Z,63.70
2019-04-07T17:44:23.019Z,64.10
2019-04-07T17:46:50.222Z,64.30
2019-04-07T17:49:30.895Z,64.60
2019-04-07T17:52:13.145Z,64.60
2019-04-07T17:54:58.852Z,64.90
2019-04-07T17:57:27.244Z,65.00
2019-04-07T17:59:55.728Z,65.30
2019-04-07T18:02:29.781Z,65.40
2019-04-07T18:04:57.109Z,65.50
2019-04-07T18:07:28.630Z,65.80
2019-04-07T18:10:08.965Z,65.80
2019-04-07T18:12:50.311Z,66.10
2019-04-07T18:15:38.038Z,66.30
2019-04-07T18:18:25.943Z,66.70
2019-04-07T18:21:00.691Z,66.90
2019-04-07T18:23:37.142Z,66.80
2019-04-07T18:26:23.462Z,67.30
2019-04-07T18:29:31.004Z,67.30
2019-04-07T18:32:20.807Z,67.50
2019-04-07T18:35:11.168Z,67.90
2019-04-07T18:38:09.418Z,68.20
2019-04-07T18:41:10.737Z,68.60
2019-04-07T18:44:03.637Z,69.00
2019-04-07T18:46:52.759Z,69.60
2019-04-07T18:49:46.508Z,69.50
2019-04-07T18:52:54.485Z,70.00
2019-04-07T18:55:57.910Z,70.30
2019-04-07T18:58:52.578Z,70.60
2019-04-07T19:01:56.769Z,70.90
2019-04-07T19:05:02.173Z,71.30
2019-04-07T19:07:51.720Z,71.70
2019-04-07T19:11:08.200Z,72.00
2019-04-07T19:14:20.439Z,72.60
2019-04-07T19:17:02.942Z,72.70
2019-04-07T19:20:05.294Z,73.70
2019-04-07T19:22:58.120Z,73.30
2019-04-07T19:25:35.678Z,73.70
2019-04-07T19:28:19.147Z,73.70
2019-04-07T19:31:06.655Z,73.40
2019-04-07T19:33:44.521Z,73.70
2019-04-07T19:36:16.392Z,73.80
2019-04-07T19:38:43.351Z,73.80
2019-04-07T19:41:18.747Z,74.10
2019-04-07T19:43:52.807Z,73.70
2019-04-07T19:46:37.343Z,73.70
2019-04-07T19:49:23.349Z,73.80
2019-04-07T19:51:59.440Z,73.90
2019-04-07T19:54:35.640Z,74.50
2019-04-07T19:57:16.178Z,74.60
2019-04-07T20:00:02.784Z,74.60
2019-04-07T20:02:37.854Z,75.10
2019-04-07T20:05:12.222Z,74.80
2019-04-07T20:07:41.880Z,75.50
2019-04-07T20:13:07.895Z,75.30
2019-04-07T20:15:45.440Z,75.40
2019-04-07T20:18:14.609Z,75.10
2019-04-07T20:21:00.810Z,75.90
2019-04-07T20:23:31.873Z,75.70
2019-04-07T20:25:59.478Z,75.80
2019-04-07T20:28:32.836Z,76.10
2019-04-07T20:31:02.959Z,76.80
2019-04-07T20:33:33.246Z,77.00
2019-04-07T20:36:02.297Z,77.00
2019-04-07T20:38:42.160Z,76.90
2019-04-07T20:41:13.610Z,76.90
2019-04-07T20:43:46.859Z,77.00
2019-04-07T20:46:23.839Z,77.10
2019-04-07T20:48:58.148Z,78.00
2019-04-07T20:51:29.660Z,77.40
2019-04-07T20:54:07.671Z,77.30
2019-04-07T20:56:44.324Z,77.10
2019-04-07T20:59:15.969Z,76.90
2019-04-07T21:02:05.892Z,77.00
2019-04-07T21:04:51.364Z,76.90
2019-04-07T21:07:35.498Z,77.60
2019-04-07T21:10:10.007Z,77.30
2019-04-07T21:12:44.789Z,78.10
2019-04-07T21:15:25.508Z,79.00
2019-04-07T21:18:04.350Z,79.60
2019-04-07T21:20:36.732Z,80.00
2019-04-07T21:23:05.742Z,81.10
2019-04-07T21:25:52.085Z,82.00
2019-04-07T21:28:21.702Z,82.00
2019-04-07T21:30:56.572Z,83.40
2019-04-07T21:33:34.579Z,84.20
2019-04-07T21:36:14.816Z,84.20
2019-04-07T21:38:45.974Z,85.10
2019-04-07T21:41:31.061Z,85.40
2019-04-07T21:44:02.489Z,85.90
2019-04-07T21:46:44.043Z,85.90
2019-04-07T21:49:32.757Z,86.30
2019-04-07T21:51:59.273Z,86.40
2019-04-07T21:54:28.109Z,86.80
2019-04-07T21:56:56.562Z,86.70
2019-04-07T21:59:28.595Z,87.60
2019-04-07T22:01:55.181Z,86.40
2019-04-07T22:04:30.141Z,86.90
2019-04-07T22:07:01.662Z,86.80
2019-04-07T22:09:30.325Z,86.80
2019-04-07T22:11:56.823Z,86.90
2019-04-07T22:14:23.252Z,87.40
2019-04-07T22:16:49.737Z,87.20
2019-04-07T22:19:17.632Z,87.20
2019-04-07T22:21:44.502Z,87.30
2019-04-07T22:24:11.151Z,87.30
2019-04-07T22:26:37.653Z,87.40
2019-04-07T22:29:05.436Z,87.10
2019-04-07T22:31:34.179Z,87.40
2019-04-07T22:34:02.345Z,87.10
2019-04-07T22:36:29.426Z,86.90
2019-04-07T22:38:58.736Z,86.90
2019-04-07T22:41:25.037Z,87.20
2019-04-07T22:43:52.864Z,86.80
2019-04-07T22:46:23.649Z,86.60
2019-04-07T22:48:48.043Z,87.40
2019-04-07T22:51:14.927Z,86.90
2019-04-07T22:53:43.318Z,86.90
2019-04-07T22:56:09.853Z,86.60
2019-04-07T22:58:36.374Z,86.50
2019-04-07T23:01:02.902Z,86.20
2019-04-07T23:03:29.380Z,86.40
2019-04-07T23:05:55.953Z,86.60
2019-04-07T23:08:22.529Z,86.50
2019-04-07T23:10:49.578Z,86.10
2019-04-07T23:13:16.233Z,86.00
2019-04-07T23:15:45.906Z,86.00
2019-04-07T23:18:11.619Z,86.20
2019-04-07T23:20:38.185Z,86.10
2019-04-07T23:23:04.746Z,86.10
2019-04-07T23:25:32.196Z,86.50
2019-04-07T23:27:58.800Z,86.40
2019-04-07T23:30:27.813Z,86.30
2019-04-07T23:32:54.311Z,86.40
2019-04-07T23:35:20.706Z,86.80
2019-04-07T23:37:47.116Z,86.80
2019-04-07T23:40:14.080Z,86.90
2019-04-07T23:42:40.585Z,87.10
2019-04-07T23:45:06.966Z,87.20
2019-04-07T23:47:33.479Z,87.40
2019-04-07T23:50:00.757Z,87.90
2019-04-07T23:52:27.234Z,88.30
2019-04-07T23:54:54.527Z,89.20
2019-04-07T23:57:21.854Z,88.80
2019-04-07T23:59:48.601Z,89.50
